sensor_id;sensor_type;location;lat;lon;timestamp;pressure;altitude;pressure_sealevel;temperature;humidity
13800;BME280;6971;50.028;9.258;2023-03-14T00:04:06;97549.09;;;8.71;100.00
13800;BME280;6971;50.028;9.258;2023-03-14T00:09:07;97531.19;;;8.77;100.00
13800;BME280;6971;50.028;9.258;2023-03-14T00:14:08;97560.94;;;8.77;100.00
13800;BME280;6971;50.028;9.258;2023-03-14T00:19:08;97536.69;;;8.96;100.00
13800;BME280;6971;50.028;9.258;2023-03-14T00:24:08;97547.78;;;9.11;100.00
13800;BME280;6971;50.028;9.258;2023-03-14T00:29:09;97556.75;;;9.20;100.00
13800;BME280;6971;50.028;9.258;2023-03-14T00:34:09;97565.22;;;9.35;100.00
13800;BME280;6971;50.028;9.258;2023-03-14T00:39:09;97556.38;;;9.25;100.00
13800;BME280;6971;50.028;9.258;2023-03-14T00:44:09;97545.50;;;9.30;100.00
13800;BME280;6971;50.028;9.258;2023-03-14T00:49:10;97558.66;;;9.41;100.00
13800;BME280;6971;50.028;9.258;2023-03-14T00:54:10;97562.00;;;9.43;100.00
13800;BME280;6971;50.028;9.258;2023-03-14T00:59:10;97548.72;;;9.33;100.00
13800;BME280;6971;50.028;9.258;2023-03-14T01:04:11;97545.03;;;9.24;100.00
13800;BME280;6971;50.028;9.258;2023-03-14T01:09:11;97523.97;;;9.36;100.00
13800;BME280;6971;50.028;9.258;2023-03-14T01:14:12;97521.34;;;9.36;100.00
13800;BME280;6971;50.028;9.258;2023-03-14T01:19:12;97527.22;;;9.28;100.00
13800;BME280;6971;50.028;9.258;2023-03-14T01:24:13;97537.63;;;9.41;100.00
13800;BME280;6971;50.028;9.258;2023-03-14T01:29:13;97542.88;;;9.41;100.00
13800;BME280;6971;50.028;9.258;2023-03-14T01:34:13;97530.91;;;9.48;100.00
13800;BME280;6971;50.028;9.258;2023-03-14T01:39:14;97526.59;;;9.47;100.00
13800;BME280;6971;50.028;9.258;2023-03-14T01:44:14;97522.44;;;9.45;100.00
13800;BME280;6971;50.028;9.258;2023-03-14T01:49:30;97503.06;;;9.46;100.00
13800;BME280;6971;50.028;9.258;2023-03-14T01:54:44;97505.81;;;9.44;100.00
13800;BME280;6971;50.028;9.258;2023-03-14T01:59:52;97482.06;;;9.34;100.00
13800;BME280;6971;50.028;9.258;2023-03-14T02:04:55;97476.94;;;9.33;100.00
13800;BME280;6971;50.028;9.258;2023-03-14T02:09:56;97477.84;;;9.43;100.00
13800;BME280;6971;50.028;9.258;2023-03-14T02:14:59;97465.44;;;9.45;100.00
13800;BME280;6971;50.028;9.258;2023-03-14T02:25:08;97414.97;;;9.51;100.00
13800;BME280;6971;50.028;9.258;2023-03-14T02:30:14;97407.59;;;9.45;100.00
13800;BME280;6971;50.028;9.258;2023-03-14T02:35:19;97396.97;;;9.35;100.00
13800;BME280;6971;50.028;9.258;2023-03-14T02:40:21;97397.31;;;9.42;100.00
13800;BME280;6971;50.028;9.258;2023-03-14T02:50:25;97398.81;;;9.56;100.00
13800;BME280;6971;50.028;9.258;2023-03-14T02:55:26;97406.50;;;9.48;100.00
13800;BME280;6971;50.028;9.258;2023-03-14T03:00:26;97395.72;;;9.51;100.00
13800;BME280;6971;50.028;9.258;2023-03-14T03:05:27;97387.06;;;9.60;100.00
13800;BME280;6971;50.028;9.258;2023-03-14T03:10:28;97396.56;;;9.51;100.00
13800;BME280;6971;50.028;9.258;2023-03-14T03:15:29;97384.25;;;9.52;100.00
13800;BME280;6971;50.028;9.258;2023-03-14T03:20:29;97402.78;;;9.50;100.00
13800;BME280;6971;50.028;9.258;2023-03-14T03:25:30;97396.44;;;9.53;100.00
13800;BME280;6971;50.028;9.258;2023-03-14T03:30:30;97353.53;;;9.52;100.00
13800;BME280;6971;50.028;9.258;2023-03-14T03:35:31;97366.91;;;9.49;100.00
13800;BME280;6971;50.028;9.258;2023-03-14T03:40:31;97371.03;;;9.42;100.00
13800;BME280;6971;50.028;9.258;2023-03-14T03:45:31;97366.00;;;9.39;100.00
13800;BME280;6971;50.028;9.258;2023-03-14T03:50:32;97351.22;;;9.38;100.00
13800;BME280;6971;50.028;9.258;2023-03-14T03:55:32;97334.91;;;9.23;100.00
13800;BME280;6971;50.028;9.258;2023-03-14T04:00:32;97322.31;;;9.05;100.00
13800;BME280;6971;50.028;9.258;2023-03-14T04:05:33;97323.00;;;9.07;100.00
13800;BME280;6971;50.028;9.258;2023-03-14T04:10:35;97316.72;;;8.98;100.00
13800;BME280;6971;50.028;9.258;2023-03-14T04:15:35;97328.88;;;8.99;100.00
13800;BME280;6971;50.028;9.258;2023-03-14T04:20:36;97334.56;;;9.16;100.00
13800;BME280;6971;50.028;9.258;2023-03-14T04:25:36;97333.72;;;9.16;100.00
13800;BME280;6971;50.028;9.258;2023-03-14T04:30:36;97328.13;;;9.09;100.00
13800;BME280;6971;50.028;9.258;2023-03-14T04:35:37;97327.88;;;9.12;100.00
13800;BME280;6971;50.028;9.258;2023-03-14T04:40:38;97335.66;;;9.13;100.00
13800;BME280;6971;50.028;9.258;2023-03-14T04:45:42;97347.25;;;9.11;100.00
13800;BME280;6971;50.028;9.258;2023-03-14T04:50:42;97333.38;;;9.09;100.00
13800;BME280;6971;50.028;9.258;2023-03-14T04:55:50;97335.06;;;9.10;100.00
13800;BME280;6971;50.028;9.258;2023-03-14T05:00:51;97331.81;;;9.18;100.00
13800;BME280;6971;50.028;9.258;2023-03-14T05:05:52;97320.91;;;9.22;100.00
13800;BME280;6971;50.028;9.258;2023-03-14T05:10:56;97307.53;;;9.25;100.00
13800;BME280;6971;50.028;9.258;2023-03-14T05:16:05;97320.41;;;9.29;100.00
13800;BME280;6971;50.028;9.258;2023-03-14T05:21:05;97305.63;;;9.27;100.00
13800;BME280;6971;50.028;9.258;2023-03-14T05:26:09;97304.66;;;9.29;100.00
13800;BME280;6971;50.028;9.258;2023-03-14T05:31:09;97285.53;;;9.26;100.00
13800;BME280;6971;50.028;9.258;2023-03-14T05:36:09;97280.03;;;9.30;100.00
13800;BME280;6971;50.028;9.258;2023-03-14T05:41:10;97280.66;;;9.22;100.00
13800;BME280;6971;50.028;9.258;2023-03-14T05:46:10;97277.91;;;9.23;100.00
13800;BME280;6971;50.028;9.258;2023-03-14T05:51:11;97290.66;;;9.28;98.91
13800;BME280;6971;50.028;9.258;2023-03-14T05:56:11;97280.22;;;9.38;97.15
13800;BME280;6971;50.028;9.258;2023-03-14T06:01:11;97288.31;;;9.46;96.04
13800;BME280;6971;50.028;9.258;2023-03-14T06:06:12;97279.69;;;9.44;95.71
13800;BME280;6971;50.028;9.258;2023-03-14T06:11:12;97289.13;;;9.47;95.96
13800;BME280;6971;50.028;9.258;2023-03-14T06:16:12;97285.03;;;9.33;97.34
13800;BME280;6971;50.028;9.258;2023-03-14T06:21:14;97289.41;;;9.44;95.26
13800;BME280;6971;50.028;9.258;2023-03-14T06:26:15;97286.91;;;9.42;96.26
13800;BME280;6971;50.028;9.258;2023-03-14T06:31:15;97280.53;;;9.45;93.61
13800;BME280;6971;50.028;9.258;2023-03-14T06:36:16;97274.63;;;9.52;94.08
13800;BME280;6971;50.028;9.258;2023-03-14T06:41:16;97276.81;;;9.47;93.83
13800;BME280;6971;50.028;9.258;2023-03-14T06:46:16;97267.59;;;9.53;92.82
13800;BME280;6971;50.028;9.258;2023-03-14T06:51:17;97271.38;;;9.39;94.98
13800;BME280;6971;50.028;9.258;2023-03-14T06:56:17;97268.88;;;9.37;95.51
13800;BME280;6971;50.028;9.258;2023-03-14T07:01:25;97277.03;;;9.34;97.83
13800;BME280;6971;50.028;9.258;2023-03-14T07:06:26;97266.44;;;9.03;100.00
13800;BME280;6971;50.028;9.258;2023-03-14T07:11:29;97280.69;;;8.89;100.00
13800;BME280;6971;50.028;9.258;2023-03-14T07:16:29;97271.41;;;8.73;100.00
13800;BME280;6971;50.028;9.258;2023-03-14T07:21:33;97261.13;;;8.82;100.00
13800;BME280;6971;50.028;9.258;2023-03-14T07:26:35;97260.75;;;8.86;100.00
13800;BME280;6971;50.028;9.258;2023-03-14T07:31:35;97264.03;;;9.00;100.00
13800;BME280;6971;50.028;9.258;2023-03-14T07:36:35;97259.47;;;9.02;100.00
13800;BME280;6971;50.028;9.258;2023-03-14T07:41:36;97264.38;;;9.07;100.00
13800;BME280;6971;50.028;9.258;2023-03-14T07:46:36;97263.72;;;9.14;100.00
13800;BME280;6971;50.028;9.258;2023-03-14T07:51:36;97254.28;;;9.23;100.00
13800;BME280;6971;50.028;9.258;2023-03-14T07:56:37;97265.28;;;9.17;100.00
13800;BME280;6971;50.028;9.258;2023-03-14T08:01:37;97258.88;;;9.31;100.00
13800;BME280;6971;50.028;9.258;2023-03-14T08:06:37;97261.88;;;9.26;100.00
13800;BME280;6971;50.028;9.258;2023-03-14T08:11:38;97268.41;;;9.11;100.00
13800;BME280;6971;50.028;9.258;2023-03-14T08:16:38;97273.44;;;9.14;100.00
13800;BME280;6971;50.028;9.258;2023-03-14T08:21:38;97268.63;;;9.19;100.00
13800;BME280;6971;50.028;9.258;2023-03-14T08:26:39;97272.66;;;9.23;100.00
13800;BME280;6971;50.028;9.258;2023-03-14T08:31:39;97261.88;;;9.26;100.00
13800;BME280;6971;50.028;9.258;2023-03-14T08:36:39;97281.00;;;9.29;100.00
13800;BME280;6971;50.028;9.258;2023-03-14T08:41:40;97270.47;;;9.29;100.00
13800;BME280;6971;50.028;9.258;2023-03-14T08:46:42;97284.31;;;9.31;100.00
13800;BME280;6971;50.028;9.258;2023-03-14T08:51:43;97279.06;;;9.31;99.63
13800;BME280;6971;50.028;9.258;2023-03-14T08:56:43;97280.88;;;9.30;100.00
13800;BME280;6971;50.028;9.258;2023-03-14T09:01:43;97278.63;;;9.25;100.00
13800;BME280;6971;50.028;9.258;2023-03-14T09:06:44;97270.69;;;9.37;100.00
13800;BME280;6971;50.028;9.258;2023-03-14T09:11:44;97290.41;;;9.31;100.00
13800;BME280;6971;50.028;9.258;2023-03-14T09:16:44;97289.44;;;9.11;100.00
13800;BME280;6971;50.028;9.258;2023-03-14T09:21:45;97288.25;;;9.04;100.00
13800;BME280;6971;50.028;9.258;2023-03-14T09:26:45;97296.88;;;9.06;100.00
13800;BME280;6971;50.028;9.258;2023-03-14T09:31:48;97297.31;;;9.11;100.00
13800;BME280;6971;50.028;9.258;2023-03-14T09:36:48;97297.97;;;9.24;100.00
13800;BME280;6971;50.028;9.258;2023-03-14T09:41:52;97304.00;;;9.36;100.00
13800;BME280;6971;50.028;9.258;2023-03-14T09:46:57;97301.00;;;9.41;100.00
13800;BME280;6971;50.028;9.258;2023-03-14T09:52:06;97302.88;;;9.50;100.00
13800;BME280;6971;50.028;9.258;2023-03-14T09:57:19;97305.16;;;9.65;100.00
13800;BME280;6971;50.028;9.258;2023-03-14T10:02:24;97291.22;;;9.74;100.00
13800;BME280;6971;50.028;9.258;2023-03-14T10:07:28;97286.59;;;9.88;98.92
13800;BME280;6971;50.028;9.258;2023-03-14T10:12:34;97293.25;;;9.92;97.37
13800;BME280;6971;50.028;9.258;2023-03-14T10:17:47;97278.25;;;10.45;95.16
13800;BME280;6971;50.028;9.258;2023-03-14T10:22:50;97274.56;;;10.26;96.46
13800;BME280;6971;50.028;9.258;2023-03-14T10:27:51;97268.19;;;10.29;95.05
13800;BME280;6971;50.028;9.258;2023-03-14T10:32:51;97275.25;;;10.28;95.62
13800;BME280;6971;50.028;9.258;2023-03-14T10:38:00;97287.00;;;9.83;100.00
13800;BME280;6971;50.028;9.258;2023-03-14T10:43:04;97290.47;;;9.62;100.00
13800;BME280;6971;50.028;9.258;2023-03-14T10:48:16;97305.19;;;9.44;100.00
13800;BME280;6971;50.028;9.258;2023-03-14T10:53:18;97304.56;;;9.19;100.00
13800;BME280;6971;50.028;9.258;2023-03-14T10:58:29;97294.91;;;8.86;100.00
13800;BME280;6971;50.028;9.258;2023-03-14T11:03:32;97287.66;;;8.79;100.00
13800;BME280;6971;50.028;9.258;2023-03-14T11:14:19;97293.09;;;8.87;100.00
13800;BME280;6971;50.028;9.258;2023-03-14T11:19:45;97281.25;;;8.93;100.00
13800;BME280;6971;50.028;9.258;2023-03-14T11:24:59;97279.09;;;8.65;100.00
13800;BME280;6971;50.028;9.258;2023-03-14T11:35:30;97270.72;;;8.71;100.00
13800;BME280;6971;50.028;9.258;2023-03-14T11:40:34;97271.34;;;8.64;100.00
13800;BME280;6971;50.028;9.258;2023-03-14T11:45:38;97253.91;;;8.62;100.00
13800;BME280;6971;50.028;9.258;2023-03-14T11:50:39;97255.59;;;8.64;100.00
13800;BME280;6971;50.028;9.258;2023-03-14T11:55:42;97268.09;;;8.71;100.00
13800;BME280;6971;50.028;9.258;2023-03-14T12:00:43;97265.59;;;8.70;100.00
13800;BME280;6971;50.028;9.258;2023-03-14T12:05:52;97268.84;;;8.62;100.00
13800;BME280;6971;50.028;9.258;2023-03-14T12:11:02;97266.44;;;8.59;100.00
13800;BME280;6971;50.028;9.258;2023-03-14T12:16:07;97261.78;;;8.62;100.00
13800;BME280;6971;50.028;9.258;2023-03-14T12:21:20;97260.97;;;8.62;100.00
13800;BME280;6971;50.028;9.258;2023-03-14T12:26:21;97271.69;;;8.70;100.00
13800;BME280;6971;50.028;9.258;2023-03-14T12:41:47;97267.78;;;8.86;100.00
13800;BME280;6971;50.028;9.258;2023-03-14T12:46:50;97265.28;;;8.84;100.00
13800;BME280;6971;50.028;9.258;2023-03-14T12:51:58;97292.34;;;8.52;100.00
13800;BME280;6971;50.028;9.258;2023-03-14T12:57:06;97426.50;;;7.90;100.00
13800;BME280;6971;50.028;9.258;2023-03-14T13:02:25;97462.47;;;7.28;100.00
13800;BME280;6971;50.028;9.258;2023-03-14T13:07:38;97481.41;;;7.07;100.00
13800;BME280;6971;50.028;9.258;2023-03-14T13:18:10;97554.53;;;7.10;100.00
13800;BME280;6971;50.028;9.258;2023-03-14T13:23:23;97568.31;;;7.25;100.00
13800;BME280;6971;50.028;9.258;2023-03-14T13:28:23;97585.91;;;7.36;100.00
13800;BME280;6971;50.028;9.258;2023-03-14T13:33:24;97617.34;;;7.36;100.00
13800;BME280;6971;50.028;9.258;2023-03-14T13:38:27;97622.19;;;7.42;100.00
13800;BME280;6971;50.028;9.258;2023-03-14T13:48:35;97648.66;;;7.77;100.00
13800;BME280;6971;50.028;9.258;2023-03-14T13:53:53;97663.25;;;8.05;100.00
13800;BME280;6971;50.028;9.258;2023-03-14T13:58:54;97653.47;;;8.07;100.00
13800;BME280;6971;50.028;9.258;2023-03-14T14:03:56;97673.19;;;8.13;100.00
13800;BME280;6971;50.028;9.258;2023-03-14T14:09:00;97680.28;;;8.00;100.00
13800;BME280;6971;50.028;9.258;2023-03-14T14:14:02;97704.41;;;7.92;100.00
13800;BME280;6971;50.028;9.258;2023-03-14T14:19:03;97728.44;;;7.99;100.00
13800;BME280;6971;50.028;9.258;2023-03-14T14:24:04;97737.91;;;7.88;100.00
13800;BME280;6971;50.028;9.258;2023-03-14T14:29:05;97753.22;;;7.94;100.00
13800;BME280;6971;50.028;9.258;2023-03-14T14:34:18;97787.53;;;7.65;100.00
13800;BME280;6971;50.028;9.258;2023-03-14T14:39:21;97817.84;;;7.03;100.00
13800;BME280;6971;50.028;9.258;2023-03-14T14:44:33;97820.66;;;7.00;100.00
13800;BME280;6971;50.028;9.258;2023-03-14T14:49:34;97836.88;;;6.92;100.00
13800;BME280;6971;50.028;9.258;2023-03-14T14:54:52;97835.16;;;7.18;100.00
13800;BME280;6971;50.028;9.258;2023-03-14T14:59:59;97866.38;;;7.09;100.00
13800;BME280;6971;50.028;9.258;2023-03-14T15:05:00;97885.53;;;6.82;100.00
13800;BME280;6971;50.028;9.258;2023-03-14T15:10:00;97929.94;;;6.83;100.00
13800;BME280;6971;50.028;9.258;2023-03-14T15:15:01;97944.50;;;6.00;100.00
13800;BME280;6971;50.028;9.258;2023-03-14T15:20:03;97946.41;;;5.82;100.00
13800;BME280;6971;50.028;9.258;2023-03-14T15:25:07;97977.13;;;5.78;100.00
13800;BME280;6971;50.028;9.258;2023-03-14T15:30:13;97983.09;;;5.80;100.00
13800;BME280;6971;50.028;9.258;2023-03-14T15:35:14;98007.41;;;5.82;100.00
13800;BME280;6971;50.028;9.258;2023-03-14T15:40:17;98007.59;;;5.94;100.00
13800;BME280;6971;50.028;9.258;2023-03-14T15:45:18;98003.97;;;5.96;100.00
13800;BME280;6971;50.028;9.258;2023-03-14T15:50:18;98021.38;;;5.97;100.00
13800;BME280;6971;50.028;9.258;2023-03-14T15:55:19;98039.91;;;5.93;100.00
13800;BME280;6971;50.028;9.258;2023-03-14T16:00:20;98056.09;;;5.69;100.00
13800;BME280;6971;50.028;9.258;2023-03-14T16:05:24;98082.31;;;5.67;100.00
13800;BME280;6971;50.028;9.258;2023-03-14T16:10:24;98099.00;;;5.32;100.00
13800;BME280;6971;50.028;9.258;2023-03-14T16:15:27;98097.53;;;5.11;100.00
13800;BME280;6971;50.028;9.258;2023-03-14T16:20:28;98109.91;;;5.23;100.00
13800;BME280;6971;50.028;9.258;2023-03-14T16:25:29;98129.47;;;5.16;100.00
13800;BME280;6971;50.028;9.258;2023-03-14T16:30:29;98150.13;;;5.03;100.00
13800;BME280;6971;50.028;9.258;2023-03-14T16:35:29;98150.59;;;4.93;100.00
13800;BME280;6971;50.028;9.258;2023-03-14T16:40:30;98172.97;;;4.81;100.00
13800;BME280;6971;50.028;9.258;2023-03-14T16:45:30;98179.31;;;4.93;100.00
13800;BME280;6971;50.028;9.258;2023-03-14T16:50:30;98192.00;;;4.83;100.00
13800;BME280;6971;50.028;9.258;2023-03-14T16:55:31;98193.16;;;4.78;100.00
13800;BME280;6971;50.028;9.258;2023-03-14T17:00:31;98208.97;;;4.75;100.00
13800;BME280;6971;50.028;9.258;2023-03-14T17:05:32;98214.50;;;4.68;100.00
13800;BME280;6971;50.028;9.258;2023-03-14T17:10:32;98226.22;;;4.60;100.00
13800;BME280;6971;50.028;9.258;2023-03-14T17:15:33;98240.31;;;4.75;100.00
13800;BME280;6971;50.028;9.258;2023-03-14T17:20:33;98241.75;;;4.63;100.00
13800;BME280;6971;50.028;9.258;2023-03-14T17:25:35;98253.41;;;4.55;100.00
13800;BME280;6971;50.028;9.258;2023-03-14T17:30:36;98265.34;;;4.42;100.00
13800;BME280;6971;50.028;9.258;2023-03-14T17:35:37;98284.41;;;4.25;100.00
13800;BME280;6971;50.028;9.258;2023-03-14T17:40:37;98284.41;;;4.25;100.00
13800;BME280;6971;50.028;9.258;2023-03-14T17:45:38;98289.75;;;4.02;100.00
13800;BME280;6971;50.028;9.258;2023-03-14T17:50:38;98302.84;;;4.20;100.00
13800;BME280;6971;50.028;9.258;2023-03-14T17:55:40;98312.78;;;4.12;100.00
13800;BME280;6971;50.028;9.258;2023-03-14T18:00:41;98328.44;;;4.12;100.00
13800;BME280;6971;50.028;9.258;2023-03-14T18:05:41;98348.78;;;4.03;100.00
13800;BME280;6971;50.028;9.258;2023-03-14T18:10:41;98359.38;;;4.00;100.00
13800;BME280;6971;50.028;9.258;2023-03-14T18:15:42;98376.78;;;3.79;100.00
13800;BME280;6971;50.028;9.258;2023-03-14T18:20:48;98416.84;;;3.76;100.00
13800;BME280;6971;50.028;9.258;2023-03-14T18:25:49;98430.69;;;3.35;100.00
13800;BME280;6971;50.028;9.258;2023-03-14T18:30:50;98447.66;;;3.23;100.00
13800;BME280;6971;50.028;9.258;2023-03-14T18:35:53;98458.28;;;2.95;100.00
13800;BME280;6971;50.028;9.258;2023-03-14T18:40:53;98473.84;;;2.96;100.00
13800;BME280;6971;50.028;9.258;2023-03-14T18:45:53;98493.16;;;2.91;100.00
13800;BME280;6971;50.028;9.258;2023-03-14T18:50:54;98491.50;;;3.12;100.00
13800;BME280;6971;50.028;9.258;2023-03-14T18:55:54;98500.00;;;2.93;100.00
13800;BME280;6971;50.028;9.258;2023-03-14T19:01:00;98512.78;;;2.99;100.00
13800;BME280;6971;50.028;9.258;2023-03-14T19:06:04;98517.38;;;2.93;100.00
13800;BME280;6971;50.028;9.258;2023-03-14T19:11:07;98511.56;;;2.86;100.00
13800;BME280;6971;50.028;9.258;2023-03-14T19:16:13;98513.00;;;2.69;100.00
13800;BME280;6971;50.028;9.258;2023-03-14T19:21:13;98509.28;;;2.77;100.00
13800;BME280;6971;50.028;9.258;2023-03-14T19:26:14;98518.97;;;2.73;100.00
13800;BME280;6971;50.028;9.258;2023-03-14T19:31:15;98528.28;;;2.55;100.00
13800;BME280;6971;50.028;9.258;2023-03-14T19:36:24;98535.84;;;2.86;100.00
13800;BME280;6971;50.028;9.258;2023-03-14T19:41:25;98558.63;;;2.80;100.00
13800;BME280;6971;50.028;9.258;2023-03-14T19:46:25;98561.91;;;2.59;100.00
13800;BME280;6971;50.028;9.258;2023-03-14T19:51:26;98575.31;;;2.74;100.00
13800;BME280;6971;50.028;9.258;2023-03-14T19:56:26;98590.34;;;2.66;100.00
13800;BME280;6971;50.028;9.258;2023-03-14T20:01:26;98596.94;;;2.74;100.00
13800;BME280;6971;50.028;9.258;2023-03-14T20:06:27;98603.50;;;2.86;100.00
13800;BME280;6971;50.028;9.258;2023-03-14T20:11:27;98609.91;;;2.76;100.00
13800;BME280;6971;50.028;9.258;2023-03-14T20:16:27;98627.13;;;2.80;100.00
13800;BME280;6971;50.028;9.258;2023-03-14T20:21:28;98617.50;;;2.57;100.00
13800;BME280;6971;50.028;9.258;2023-03-14T20:26:29;98627.13;;;2.55;100.00
13800;BME280;6971;50.028;9.258;2023-03-14T20:31:29;98641.22;;;2.47;100.00
13800;BME280;6971;50.028;9.258;2023-03-14T20:36:31;98650.63;;;2.52;100.00
13800;BME280;6971;50.028;9.258;2023-03-14T20:41:33;98669.34;;;2.63;100.00
13800;BME280;6971;50.028;9.258;2023-03-14T20:46:40;98684.28;;;2.58;100.00
13800;BME280;6971;50.028;9.258;2023-03-14T20:51:41;98691.22;;;2.57;100.00
13800;BME280;6971;50.028;9.258;2023-03-14T20:56:41;98691.13;;;2.60;100.00
13800;BME280;6971;50.028;9.258;2023-03-14T21:01:45;98698.28;;;2.54;100.00
13800;BME280;6971;50.028;9.258;2023-03-14T21:06:46;98710.75;;;2.42;100.00
13800;BME280;6971;50.028;9.258;2023-03-14T21:11:47;98723.03;;;2.66;100.00
13800;BME280;6971;50.028;9.258;2023-03-14T21:16:48;98715.97;;;2.42;100.00
13800;BME280;6971;50.028;9.258;2023-03-14T21:21:49;98719.09;;;2.54;100.00
13800;BME280;6971;50.028;9.258;2023-03-14T21:26:53;98736.16;;;2.34;100.00
13800;BME280;6971;50.028;9.258;2023-03-14T21:31:53;98747.69;;;2.27;100.00
13800;BME280;6971;50.028;9.258;2023-03-14T21:36:54;98748.16;;;2.09;100.00
13800;BME280;6971;50.028;9.258;2023-03-14T21:41:54;98758.75;;;2.03;100.00
13800;BME280;6971;50.028;9.258;2023-03-14T21:46:55;98781.22;;;2.06;100.00
13800;BME280;6971;50.028;9.258;2023-03-14T21:51:55;98782.34;;;2.26;100.00
13800;BME280;6971;50.028;9.258;2023-03-14T21:56:55;98808.94;;;2.35;100.00
13800;BME280;6971;50.028;9.258;2023-03-14T22:02:13;98811.50;;;2.37;100.00
13800;BME280;6971;50.028;9.258;2023-03-14T22:07:15;98819.84;;;2.18;100.00
13800;BME280;6971;50.028;9.258;2023-03-14T22:12:16;98814.38;;;2.28;100.00
13800;BME280;6971;50.028;9.258;2023-03-14T22:17:18;98820.84;;;2.14;100.00
13800;BME280;6971;50.028;9.258;2023-03-14T22:22:19;98821.06;;;2.06;100.00
13800;BME280;6971;50.028;9.258;2023-03-14T22:27:20;98825.09;;;2.17;100.00
13800;BME280;6971;50.028;9.258;2023-03-14T22:32:20;98830.84;;;1.98;100.00
13800;BME280;6971;50.028;9.258;2023-03-14T22:37:20;98833.13;;;2.09;100.00
13800;BME280;6971;50.028;9.258;2023-03-14T22:42:22;98847.00;;;2.08;100.00
13800;BME280;6971;50.028;9.258;2023-03-14T22:47:22;98857.13;;;1.87;100.00
13800;BME280;6971;50.028;9.258;2023-03-14T22:52:23;98868.78;;;1.72;100.00
13800;BME280;6971;50.028;9.258;2023-03-14T22:57:23;98879.13;;;1.74;100.00
13800;BME280;6971;50.028;9.258;2023-03-14T23:02:24;98882.72;;;1.69;100.00
13800;BME280;6971;50.028;9.258;2023-03-14T23:07:24;98887.09;;;1.66;100.00
13800;BME280;6971;50.028;9.258;2023-03-14T23:12:24;98893.41;;;1.57;100.00
13800;BME280;6971;50.028;9.258;2023-03-14T23:17:25;98898.97;;;1.41;100.00
13800;BME280;6971;50.028;9.258;2023-03-14T23:22:25;98911.00;;;1.46;100.00
13800;BME280;6971;50.028;9.258;2023-03-14T23:27:27;98922.88;;;1.56;100.00
13800;BME280;6971;50.028;9.258;2023-03-14T23:32:27;98935.09;;;1.51;100.00
13800;BME280;6971;50.028;9.258;2023-03-14T23:37:27;98938.59;;;1.50;100.00
13800;BME280;6971;50.028;9.258;2023-03-14T23:42:28;98939.97;;;1.28;100.00
13800;BME280;6971;50.028;9.258;2023-03-14T23:47:28;98952.19;;;1.25;100.00
13800;BME280;6971;50.028;9.258;2023-03-14T23:52:29;98957.19;;;1.33;100.00
13800;BME280;6971;50.028;9.258;2023-03-14T23:57:29;98954.41;;;1.02;100.00
